Flight Track Log - Related Links

Times and Time Zones

All times are in EDT time to prevent confusion due to time zone crossing. See the ASQ4680 flight status page for this flight to view local times or setup timezone preferences in your user account.


Time Position Orientation Groundspeed Altitude Reporting Facility
EDT Latitude Longitude Course Direction KTS MPH feet Rate Location/Type
Thu 03:28:46 PM 29.9561 -95.3431 133° Southeast 167 192 900  Level Houston Center
Thu 03:29:42 PM 29.9239 -95.3036 134° Southeast 214 246 2,300 1,500 Climbing Houston Center
Thu 03:30:54 PM 29.8650 -95.2344 124° Southeast 258 297 4,100 1,925 Climbing Houston Center
Thu 03:31:56 PM 29.8250 -95.1661 100° East 272 313 6,600 2,256 Climbing Houston Center
Thu 03:32:51 PM 29.8125 -95.0867 70° East 269 310 8,500 1,770 Climbing Houston Center
Thu 03:33:58 PM 29.8397 -94.9992 68° East 282 325 10,200 1,179 Climbing Houston Center
Thu 03:34:48 PM 29.8689 -94.9161 68° East 332 382 10,800 776 Climbing Houston Center
Thu 03:35:54 PM 29.9092 -94.8025 68° East 345 397 11,700 952 Climbing Houston Center
Thu 03:36:54 PM 29.9469 -94.6958 68° East 351 404 12,800 1,100 Climbing Houston Center
Thu 03:37:54 PM 29.9850 -94.5842 87° East 357 411 13,900 1,050 Climbing Houston Center
Thu 03:38:54 PM 29.9897 -94.4644 88° East 363 418 14,900 1,050 Climbing Houston Center
Thu 03:39:54 PM 29.9942 -94.3400 83° East 375 432 16,000 1,050 Climbing Houston Center
Thu 03:40:54 PM 30.0072 -94.2131 82° East 388 447 17,000 1,050 Climbing Houston Center
Thu 03:41:54 PM 30.0219 -94.0864 81° East 388 447 18,100 1,050 Climbing Houston Center
Thu 03:42:54 PM 30.0389 -93.9572 81° East 393 452 19,100 1,000 Climbing Houston Center
Thu 03:43:54 PM 30.0556 -93.8281 84° East 398 458 20,100 1,050 Climbing Houston Center
Thu 03:44:54 PM 30.0681 -93.6964 82° East 405 466 21,200 1,033 Climbing Houston Center
Thu 03:45:56 PM 30.0844 -93.5622 81° East 413 475 22,200 773 Climbing Houston Center
Thu 03:47:06 PM 30.1056 -93.4017 83° East 418 481 22,900 369 Climbing Houston Center
Thu 03:48:06 PM 30.1197 -93.2747 82° East 430 495 23,000 50 Climbing Houston Center
Thu 03:49:06 PM 30.1381 -93.1286 78° East 446 513 23,000  Level Houston Center
Thu 03:50:06 PM 30.1644 -92.9800 77° East 456 525 23,000  Level Houston Center
Thu 03:51:06 PM 30.1931 -92.8386 77° East 456 525 23,000  Level Houston Center
Thu 03:52:06 PM 30.2214 -92.6969 77° East 450 518 23,000  Level Houston Center
Thu 03:53:06 PM 30.2494 -92.5531 77° East 450 518 23,000  Level Houston Center
Thu 03:54:06 PM 30.2775 -92.4139 80° East 450 518 23,000  Level Houston Center
Thu 03:55:06 PM 30.3011 -92.2600 77° East 445 512 23,000 -600 Level Houston Center
Thu 03:56:06 PM 30.3289 -92.1158 76° East 455 524 21,800 -1,450 Descending Houston Center
Thu 03:57:06 PM 30.3586 -91.9739 78° East 455 524 20,100 -1,900 Descending Houston Center
Thu 03:58:06 PM 30.3839 -91.8369 77° East 447 514 18,000 -2,400 Descending Houston Center
Thu 03:59:06 PM 30.4069 -91.7189 78° East 420 483 15,300 -2,900 Descending Houston Center
Thu 04:00:06 PM 30.4297 -91.5961 55° Northeast 405 466 12,200 -2,400 Descending Houston Center
Thu 04:01:06 PM 30.4881 -91.4997 43° Northeast 348 400 10,500 -1,750 Descending Houston Center
Thu 04:02:06 PM 30.5486 -91.4344 44° Northeast 314 361 8,700 -2,250 Descending Houston Center
Thu 04:03:06 PM 30.5964 -91.3811 44° Northeast 282 325 6,000 -2,250 Descending Houston Center
Thu 04:04:06 PM 30.6569 -91.3133 132° Southeast 275 316 4,200 -1,800 Descending Houston Center

Login

Don't have an account? Register now (free) for customized features, flight alerts, and more!